Time;durP1;ratioP1;P1;durP2;ratioP2;P2;SDS_P1;SDS_P2;PMS_P1;PMS_P2;Temp;Humidity;BMP_temperature;BMP_pressure;BME280_temperature;BME280_humidity;BME280_pressure;Samples;Min_cycle;Max_cycle;Signal;HPM_P1;HPM_P2
2023/04/16 00:01:28;;;;;;;10.60;8.00;;;;;;;15.45;65.03;101675.69;106995;1260;26509;-55
2023/04/16 00:03:56;;;;;;;10.40;7.20;;;;;;;15.42;65.05;101675.22;106816;1268;24260;-55
2023/04/16 00:06:26;;;;;;;10.40;7.90;;;;;;;15.39;65.12;101674.40;107001;1268;22534;-55
2023/04/16 00:08:55;;;;;;;9.70;7.60;;;;;;;15.38;65.15;101679.14;107087;1268;25331;-55
2023/04/16 00:11:24;;;;;;;8.40;7.60;;;;;;;15.36;65.06;101680.61;107114;1267;23419;-55
2023/04/16 00:13:52;;;;;;;11.00;7.40;;;;;;;15.33;65.25;101676.49;106835;1253;24353;-56
2023/04/16 00:16:21;;;;;;;11.40;7.70;;;;;;;15.32;65.32;101678.10;106939;1269;25434;-55
2023/04/16 00:18:49;;;;;;;8.40;7.30;;;;;;;15.31;65.46;101679.38;107038;1269;22536;-55
2023/04/16 00:21:18;;;;;;;10.10;7.30;;;;;;;15.31;65.34;101687.76;107018;1268;22516;-55
2023/04/16 00:23:46;;;;;;;11.80;7.60;;;;;;;15.29;65.24;101686.56;107180;1268;24213;-55
2023/04/16 00:26:15;;;;;;;9.10;6.10;;;;;;;15.26;65.22;101683.86;107018;1271;25352;-55
2023/04/16 00:28:44;;;;;;;7.90;6.50;;;;;;;15.22;65.27;101681.67;107078;1268;24242;-55
2023/04/16 00:31:12;;;;;;;7.40;6.10;;;;;;;15.18;65.39;101687.04;107090;1268;25546;-55
2023/04/16 00:33:41;;;;;;;7.70;6.20;;;;;;;15.16;65.34;101682.70;106764;1268;23233;-55
2023/04/16 00:36:10;;;;;;;5.80;5.20;;;;;;;15.15;65.32;101683.63;107043;1268;25396;-55
2023/04/16 00:38:39;;;;;;;7.10;5.90;;;;;;;15.14;65.40;101687.67;106920;1271;23371;-55
2023/04/16 00:41:07;;;;;;;7.80;5.50;;;;;;;15.13;65.25;101686.81;106789;1268;25233;-55
2023/04/16 00:43:36;;;;;;;8.40;6.00;;;;;;;15.13;65.29;101683.68;107043;1268;22536;-55
2023/04/16 00:46:05;;;;;;;6.80;5.10;;;;;;;15.12;65.34;101686.67;106986;1271;23895;-55
2023/04/16 00:48:35;;;;;;;7.00;5.50;;;;;;;15.12;65.23;101688.06;106781;1269;25552;-55
2023/04/16 00:51:04;;;;;;;5.50;5.00;;;;;;;15.12;65.27;101691.05;106896;1270;25533;-55
2023/04/16 00:53:34;;;;;;;10.10;5.50;;;;;;;15.10;65.25;101689.52;107068;1268;24032;-55
2023/04/16 00:56:04;;;;;;;6.10;4.80;;;;;;;15.09;65.15;101687.27;107050;1268;25318;-55
2023/04/16 00:58:34;;;;;;;5.90;5.20;;;;;;;15.09;65.33;101690.77;106993;1268;25351;-55
2023/04/16 01:01:02;;;;;;;7.00;4.90;;;;;;;15.10;65.28;101695.30;107017;1255;24205;-55
2023/04/16 01:03:39;;;;;;;7.20;5.00;;;;;;;15.10;65.27;101690.75;106806;1269;25415;-55
2023/04/16 01:06:08;;;;;;;6.80;4.90;;;;;;;15.09;65.32;101687.80;107037;1268;22509;-55
2023/04/16 01:08:37;;;;;;;10.10;5.10;;;;;;;15.08;65.28;101687.65;106996;1271;22530;-55
2023/04/16 01:11:05;;;;;;;8.30;5.40;;;;;;;15.07;65.30;101686.27;107073;1268;25409;-55
2023/04/16 01:13:37;;;;;;;8.20;4.90;;;;;;;15.07;65.30;101682.61;106820;1271;25408;-55
2023/04/16 01:16:07;;;;;;;7.10;5.30;;;;;;;15.08;65.31;101677.69;106991;1269;22527;-55
2023/04/16 01:18:36;;;;;;;9.20;5.50;;;;;;;15.09;65.28;101678.54;107061;1253;24211;-55
2023/04/16 01:21:05;;;;;;;7.30;4.90;;;;;;;15.09;65.24;101673.81;106842;1269;25240;-55
2023/04/16 01:23:34;;;;;;;8.20;4.80;;;;;;;15.09;65.29;101675.74;106826;1267;22573;-55
2023/04/16 01:26:02;;;;;;;6.50;5.50;;;;;;;15.07;65.34;101675.80;106994;1268;24257;-55
2023/04/16 01:28:31;;;;;;;6.90;4.50;;;;;;;15.11;65.26;101684.42;106860;1269;25324;-55
2023/04/16 01:31:00;;;;;;;8.60;5.00;;;;;;;15.12;65.27;101687.21;106796;1269;25434;-55
2023/04/16 01:33:42;;;;;;;6.40;4.40;;;;;;;15.11;65.38;101676.04;106996;1268;25399;-55
2023/04/16 01:36:12;;;;;;;8.80;5.00;;;;;;;15.12;65.25;101679.17;107068;1268;24226;-55
2023/04/16 01:38:40;;;;;;;5.70;3.80;;;;;;;15.11;65.14;101673.75;107043;1269;25345;-55
2023/04/16 01:41:09;;;;;;;8.40;4.80;;;;;;;15.11;65.08;101670.61;107090;1268;25367;-55
2023/04/16 01:43:37;;;;;;;7.00;4.70;;;;;;;15.10;65.09;101676.59;106804;1269;25357;-55
2023/04/16 01:46:14;;;;;;;8.30;4.80;;;;;;;15.07;65.13;101672.81;106977;1268;22628;-55
2023/04/16 01:48:43;;;;;;;6.70;4.70;;;;;;;15.07;65.14;101670.72;106759;1268;23856;-55
2023/04/16 01:51:12;;;;;;;7.70;4.80;;;;;;;15.06;65.22;101673.55;106808;1268;25268;-55
2023/04/16 01:53:40;;;;;;;8.20;5.00;;;;;;;15.06;65.28;101675.30;107022;1269;22517;-55
2023/04/16 01:56:10;;;;;;;7.70;4.90;;;;;;;15.07;65.26;101672.48;106843;1271;25367;-55
2023/04/16 01:58:41;;;;;;;9.10;4.40;;;;;;;15.08;65.34;101676.46;106820;1268;25418;-55
2023/04/16 02:01:10;;;;;;;7.60;5.10;;;;;;;15.09;65.26;101668.23;106819;1268;22476;-55
2023/04/16 02:03:39;;;;;;;5.70;4.60;;;;;;;15.07;65.10;101670.54;106998;1268;25328;-55
2023/04/16 02:06:08;;;;;;;7.90;4.80;;;;;;;15.07;65.14;101664.96;106891;1269;25338;-55
2023/04/16 02:08:37;;;;;;;9.20;4.80;;;;;;;15.04;65.35;101661.02;106371;1268;1002479;-55
2023/04/16 02:11:05;;;;;;;8.00;5.20;;;;;;;15.03;65.34;101668.55;107036;1269;25376;-55
2023/04/16 02:13:35;;;;;;;9.90;5.10;;;;;;;15.01;65.33;101667.20;107082;1268;25339;-55
2023/04/16 02:16:05;;;;;;;9.80;5.00;;;;;;;14.99;65.44;101667.96;107118;1268;25234;-55
2023/04/16 02:18:51;;;;;;;8.20;4.90;;;;;;;14.97;65.52;101672.58;107037;1268;22520;-55
2023/04/16 02:21:21;;;;;;;9.40;4.30;;;;;;;14.94;65.52;101670.02;107018;1269;22560;-55
2023/04/16 02:23:50;;;;;;;8.80;4.40;;;;;;;14.92;65.54;101674.60;106964;1271;25330;-55
2023/04/16 02:26:25;;;;;;;7.30;4.20;;;;;;;14.90;65.63;101671.50;106865;1269;25373;-55
2023/04/16 02:28:54;;;;;;;7.70;4.40;;;;;;;14.89;65.73;101674.48;106796;1269;25289;-55
2023/04/16 02:31:25;;;;;;;9.00;4.50;;;;;;;14.89;65.74;101668.23;106946;1269;25355;-55
2023/04/16 02:33:53;;;;;;;6.60;4.10;;;;;;;14.88;65.76;101671.73;106766;1268;25229;-55
2023/04/16 02:36:22;;;;;;;8.30;4.40;;;;;;;14.87;65.79;101672.45;106978;1268;22540;-55
2023/04/16 02:38:50;;;;;;;9.10;5.10;;;;;;;14.85;65.77;101669.18;106998;1271;24221;-55
2023/04/16 02:41:19;;;;;;;9.60;4.40;;;;;;;14.84;65.80;101672.20;106955;1268;25415;-55
2023/04/16 02:43:47;;;;;;;9.00;5.00;;;;;;;14.83;65.87;101672.92;106766;1269;25336;-55
2023/04/16 02:46:16;;;;;;;6.70;4.40;;;;;;;14.83;65.88;101678.16;106879;1272;25491;-55
2023/04/16 02:48:45;;;;;;;11.30;4.60;;;;;;;14.82;65.79;101681.87;106768;1271;24389;-55
2023/04/16 02:51:13;;;;;;;8.00;4.80;;;;;;;14.80;65.78;101682.06;107090;1271;25389;-55
2023/04/16 02:53:44;;;;;;;8.00;5.00;;;;;;;14.79;65.79;101682.95;106989;1268;24237;-55
2023/04/16 02:56:13;;;;;;;10.00;5.50;;;;;;;14.79;65.88;101685.94;106930;1268;25318;-55
2023/04/16 02:58:42;;;;;;;9.40;5.00;;;;;;;14.78;65.89;101687.17;107028;1269;25349;-55
2023/04/16 03:01:11;;;;;;;11.30;5.30;;;;;;;14.78;65.99;101690.31;107122;1269;25355;-55
2023/04/16 03:03:40;;;;;;;12.30;5.60;;;;;;;14.78;66.01;101695.05;107016;1269;22547;-55
2023/04/16 03:06:09;;;;;;;8.80;5.00;;;;;;;14.76;65.98;101695.09;106803;1269;25485;-55
2023/04/16 03:08:38;;;;;;;9.60;5.40;;;;;;;14.76;66.03;101697.35;107124;1268;25332;-56
2023/04/16 03:11:06;;;;;;;10.00;5.50;;;;;;;14.75;66.07;101701.22;107048;1269;22557;-55
2023/04/16 03:13:35;;;;;;;9.40;5.40;;;;;;;14.73;66.12;101704.77;106945;1268;22531;-56
2023/04/16 03:16:03;;;;;;;9.70;6.40;;;;;;;14.71;66.07;101706.38;106960;1271;22642;-55
2023/04/16 03:18:32;;;;;;;10.90;5.40;;;;;;;14.68;66.12;101711.86;106889;1268;22534;-55
2023/04/16 03:21:00;;;;;;;8.50;5.50;;;;;;;14.66;66.20;101714.36;106289;1269;1003216;-55
2023/04/16 03:23:30;;;;;;;8.70;4.70;;;;;;;14.65;66.11;101710.88;106992;1268;25363;-55
2023/04/16 03:25:59;;;;;;;9.50;5.00;;;;;;;14.57;66.45;101708.10;107131;1268;24227;-55
2023/04/16 03:28:29;;;;;;;11.50;6.00;;;;;;;14.56;66.51;101711.63;106983;1268;24205;-55
2023/04/16 03:30:58;;;;;;;11.60;5.80;;;;;;;14.61;66.29;101711.33;107016;1269;24239;-55
2023/04/16 03:33:27;;;;;;;9.20;4.80;;;;;;;14.63;66.20;101714.09;106832;1273;25479;-55
2023/04/16 03:35:57;;;;;;;11.10;4.70;;;;;;;14.64;66.11;101714.73;107012;1268;25419;-55
2023/04/16 03:38:27;;;;;;;10.70;5.40;;;;;;;14.63;66.08;101711.80;106990;1269;25325;-55
2023/04/16 03:40:57;;;;;;;9.80;5.30;;;;;;;14.52;66.40;101718.35;107030;1268;25334;-55
2023/04/16 03:43:25;;;;;;;11.50;5.70;;;;;;;14.48;66.55;101718.45;106942;1269;25342;-55
2023/04/16 03:45:54;;;;;;;9.10;5.60;;;;;;;14.45;66.68;101713.28;106807;1256;25495;-55
2023/04/16 03:48:24;;;;;;;11.00;5.60;;;;;;;14.43;66.75;101708.10;107038;1267;25366;-55
2023/04/16 03:50:52;;;;;;;11.60;5.10;;;;;;;14.41;66.91;101710.04;106802;1268;23871;-56
2023/04/16 03:53:22;;;;;;;9.50;5.30;;;;;;;14.40;66.98;101716.53;106878;1270;25342;-55
2023/04/16 03:55:51;;;;;;;13.70;5.80;;;;;;;14.45;66.91;101725.84;107160;1269;22514;-55
2023/04/16 03:58:20;;;;;;;11.50;6.50;;;;;;;14.49;66.78;101724.88;106826;1268;24265;-55
2023/04/16 04:00:54;;;;;;;12.10;6.60;;;;;;;14.58;66.59;101718.38;106872;1268;25545;-55
2023/04/16 04:03:24;;;;;;;9.80;5.70;;;;;;;14.65;66.43;101726.26;106576;1275;24207;-55
2023/04/16 04:05:54;;;;;;;10.70;5.70;;;;;;;14.67;66.51;101726.73;106972;1269;22650;-55
2023/04/16 04:08:26;;;;;;;12.50;6.20;;;;;;;14.71;66.53;101738.35;107115;1269;25357;-55
2023/04/16 04:10:54;;;;;;;12.10;6.30;;;;;;;14.75;66.45;101733.71;106951;1273;25463;-55
2023/04/16 04:13:23;;;;;;;9.60;5.90;;;;;;;14.78;66.29;101737.48;107052;1271;22638;-55
2023/04/16 04:15:52;;;;;;;18.20;6.40;;;;;;;14.82;66.14;101736.00;106837;1270;22747;-55
2023/04/16 04:18:21;;;;;;;12.30;6.60;;;;;;;14.85;66.10;101736.27;107056;1268;22521;-55
2023/04/16 04:20:50;;;;;;;11.60;6.30;;;;;;;14.86;66.02;101741.48;107039;1269;24205;-55
2023/04/16 04:23:20;;;;;;;11.90;5.80;;;;;;;14.88;65.92;101743.19;106968;1269;25304;-55
2023/04/16 04:25:49;;;;;;;12.80;5.70;;;;;;;14.90;65.87;101742.64;107048;1271;25275;-55
2023/04/16 04:28:18;;;;;;;9.10;5.70;;;;;;;14.90;65.86;101738.95;106960;1268;24369;-55
2023/04/16 04:30:46;;;;;;;12.40;6.50;;;;;;;14.93;65.93;101745.02;107057;1268;25562;-55
2023/04/16 04:33:16;;;;;;;16.50;6.90;;;;;;;14.95;65.86;101749.15;107056;1268;25335;-55
2023/04/16 04:35:45;;;;;;;11.90;5.60;;;;;;;14.98;65.81;101755.86;106999;1268;25373;-55
2023/04/16 04:38:18;;;;;;;13.40;6.70;;;;;;;15.01;65.80;101760.34;106913;1268;22524;-55
2023/04/16 04:40:47;;;;;;;11.40;6.30;;;;;;;15.06;65.76;101760.94;107008;1268;22513;-56
2023/04/16 04:43:16;;;;;;;13.60;6.30;;;;;;;15.11;65.69;101765.33;106717;1269;25354;-55
2023/04/16 04:45:45;;;;;;;12.60;6.50;;;;;;;15.15;65.59;101765.94;106998;1271;25394;-55
2023/04/16 04:48:14;;;;;;;13.70;6.80;;;;;;;15.18;65.47;101762.73;107107;1269;25390;-55
2023/04/16 04:50:43;;;;;;;13.60;6.70;;;;;;;15.20;65.29;101763.36;106939;1269;22533;-55
2023/04/16 04:53:13;;;;;;;10.00;6.40;;;;;;;15.19;65.18;101766.20;106545;1275;22510;-55
2023/04/16 04:55:42;;;;;;;14.50;6.00;;;;;;;15.17;65.10;101769.56;107064;1271;22514;-55
2023/04/16 04:58:11;;;;;;;12.80;6.10;;;;;;;15.17;65.14;101773.06;106981;1268;25360;-55
2023/04/16 05:00:41;;;;;;;13.30;6.90;;;;;;;15.12;65.16;101783.13;107041;1269;25360;-55
2023/04/16 05:03:11;;;;;;;14.90;7.30;;;;;;;15.10;65.25;101788.43;107010;1270;25354;-55
2023/04/16 05:05:40;;;;;;;13.20;6.80;;;;;;;15.06;65.36;101781.55;106719;1275;25444;-55
2023/04/16 05:08:09;;;;;;;15.20;6.80;;;;;;;15.04;65.49;101782.64;106700;1272;26508;-54
2023/04/16 05:10:37;;;;;;;15.30;6.80;;;;;;;15.04;65.48;101779.14;106845;1269;24182;-54
2023/04/16 05:13:06;;;;;;;12.60;6.30;;;;;;;14.96;65.85;101775.48;106846;1268;26506;-54
2023/04/16 05:15:35;;;;;;;12.90;6.20;;;;;;;14.94;66.07;101777.30;106595;1272;25409;-54
2023/04/16 05:18:03;;;;;;;13.40;6.70;;;;;;;14.95;66.01;101781.27;106643;1269;22534;-54
2023/04/16 05:20:32;;;;;;;13.40;6.40;;;;;;;14.98;66.01;101784.71;106838;1269;25397;-54
2023/04/16 05:23:00;;;;;;;15.20;6.50;;;;;;;15.03;65.91;101776.55;107018;1269;25356;-54
2023/04/16 05:25:29;;;;;;;17.10;7.40;;;;;;;15.09;65.94;101782.19;106975;1275;25348;-54
2023/04/16 05:27:58;;;;;;;11.20;6.30;;;;;;;15.15;65.73;101784.10;106766;1275;25534;-55
2023/04/16 05:30:26;;;;;;;11.80;6.00;;;;;;;15.22;65.40;101795.98;107078;1275;24257;-55
2023/04/16 05:32:55;;;;;;;13.50;5.50;;;;;;;15.25;65.37;101795.41;106748;1271;25342;-55
2023/04/16 05:35:23;;;;;;;13.40;5.60;;;;;;;15.29;65.19;101793.91;107062;1271;25630;-55
2023/04/16 05:37:52;;;;;;;15.00;6.70;;;;;;;15.29;64.87;101795.48;107044;1269;26502;-55
2023/04/16 05:40:21;;;;;;;11.40;5.90;;;;;;;15.26;64.82;101793.28;106843;1271;25434;-55
2023/04/16 05:42:50;;;;;;;11.00;6.00;;;;;;;15.24;64.77;101798.94;107080;1271;25366;-55
2023/04/16 05:45:18;;;;;;;14.40;6.30;;;;;;;15.14;64.93;101800.21;107151;1268;25387;-55
2023/04/16 05:47:47;;;;;;;12.50;5.70;;;;;;;15.12;65.05;101810.59;107027;1269;25470;-55
2023/04/16 05:50:16;;;;;;;14.70;5.90;;;;;;;15.08;65.09;101822.04;106920;1271;25359;-55
2023/04/16 05:52:44;;;;;;;14.60;5.70;;;;;;;15.05;65.16;101827.88;107083;1268;25373;-55
2023/04/16 05:55:13;;;;;;;15.30;5.60;;;;;;;15.03;65.16;101827.94;107057;1268;25415;-55
2023/04/16 05:57:41;;;;;;;14.40;5.30;;;;;;;15.00;65.30;101829.55;106986;1269;23232;-55
2023/04/16 06:00:10;;;;;;;13.00;6.40;;;;;;;15.00;65.40;101825.56;106988;1269;25336;-55
2023/04/16 06:02:41;;;;;;;;;;;;;;;15.00;65.51;101821.35;106954;1271;23870;-55
2023/04/16 06:05:10;;;;;;;15.50;5.80;;;;;;;15.04;65.47;101816.89;107072;1271;25345;-55
2023/04/16 06:07:39;;;;;;;14.40;5.70;;;;;;;15.06;65.32;101819.30;107011;1271;25539;-55
2023/04/16 06:10:08;;;;;;;13.50;5.80;;;;;;;15.09;65.38;101822.19;106276;1268;1003074;-55
2023/04/16 06:12:36;;;;;;;10.30;5.10;;;;;;;15.12;65.51;101820.70;107019;1271;22636;-55
2023/04/16 06:15:05;;;;;;;11.40;5.60;;;;;;;15.18;65.45;101821.45;107032;1271;25325;-55
2023/04/16 06:17:34;;;;;;;10.80;5.70;;;;;;;15.26;65.39;101816.53;107057;1270;25372;-55
2023/04/16 06:20:03;;;;;;;14.20;5.60;;;;;;;15.36;65.27;101811.02;106995;1269;24361;-55
2023/04/16 06:22:33;;;;;;;10.20;5.30;;;;;;;15.46;64.94;101814.66;106901;1268;25360;-55
2023/04/16 06:25:01;;;;;;;15.20;5.50;;;;;;;15.55;64.48;101823.71;106915;1272;24323;-55
2023/04/16 06:27:30;;;;;;;12.60;5.30;;;;;;;15.61;64.18;101821.98;107008;1269;25376;-55
2023/04/16 06:29:59;;;;;;;7.80;4.80;;;;;;;15.64;63.90;101826.45;106989;1268;25376;-54
2023/04/16 06:32:28;;;;;;;11.10;6.10;;;;;;;15.64;63.92;101823.81;107045;1269;22558;-55
2023/04/16 06:34:58;;;;;;;11.00;5.20;;;;;;;15.63;63.81;101824.38;106977;1269;24197;-55
2023/04/16 06:37:26;;;;;;;13.90;6.10;;;;;;;15.62;63.69;101824.75;106842;1269;22553;-54
2023/04/16 06:39:55;;;;;;;11.90;5.90;;;;;;;15.59;63.54;101822.19;107037;1269;25363;-54
2023/04/16 06:42:23;;;;;;;13.70;5.80;;;;;;;15.58;63.62;101827.29;107024;1268;25324;-54
2023/04/16 06:44:52;;;;;;;10.30;5.30;;;;;;;15.57;63.68;101832.23;106833;1269;24391;-54
2023/04/16 06:47:21;;;;;;;11.50;5.10;;;;;;;15.61;63.74;101833.00;106943;1267;25302;-55
2023/04/16 06:49:49;;;;;;;13.10;5.30;;;;;;;15.65;63.72;101835.70;106977;1271;25511;-54
2023/04/16 06:52:18;;;;;;;14.10;5.50;;;;;;;15.67;63.51;101839.31;106900;1275;25366;-54
2023/04/16 06:54:47;;;;;;;15.40;5.50;;;;;;;15.71;63.51;101847.45;107010;1271;26494;-54
2023/04/16 06:57:15;;;;;;;9.90;5.50;;;;;;;15.78;63.51;101849.36;107105;1269;22629;-54
2023/04/16 06:59:44;;;;;;;13.50;5.30;;;;;;;15.87;63.41;101851.02;106972;1268;25373;-54
2023/04/16 07:02:12;;;;;;;12.10;5.40;;;;;;;15.99;63.08;101850.70;107010;1269;24294;-54
2023/04/16 07:04:41;;;;;;;10.80;5.30;;;;;;;16.08;62.69;101850.10;107038;1268;25359;-54
2023/04/16 07:07:10;;;;;;;12.50;5.90;;;;;;;16.14;62.38;101846.11;107019;1271;25332;-54
2023/04/16 07:09:38;;;;;;;14.80;6.00;;;;;;;16.17;62.08;101847.06;106970;1270;25553;-54
2023/04/16 07:12:07;;;;;;;9.70;5.60;;;;;;;16.18;61.90;101846.34;106883;1270;26498;-54
2023/04/16 07:14:36;;;;;;;11.60;6.30;;;;;;;16.19;61.66;101846.50;106922;1269;25381;-54
2023/04/16 07:17:05;;;;;;;16.70;5.80;;;;;;;16.16;61.55;101851.98;106737;1269;25366;-54
2023/04/16 07:19:34;;;;;;;13.20;5.80;;;;;;;16.14;61.61;101862.37;106952;1252;25565;-54
2023/04/16 07:22:02;;;;;;;16.60;5.50;;;;;;;16.13;61.25;101865.38;107005;1271;25350;-54
2023/04/16 07:24:31;;;;;;;14.90;5.00;;;;;;;16.10;61.15;101868.62;106871;1270;22643;-54
2023/04/16 07:27:00;;;;;;;13.00;6.00;;;;;;;16.06;61.21;101866.25;107093;1268;25370;-54
2023/04/16 07:29:29;;;;;;;14.00;5.60;;;;;;;16.04;61.38;101864.23;106764;1269;25335;-54
2023/04/16 07:31:57;;;;;;;12.90;5.30;;;;;;;16.01;61.49;101860.98;107045;1270;24221;-54
2023/04/16 07:34:26;;;;;;;12.00;5.50;;;;;;;15.99;61.58;101861.90;106857;1270;25491;-54
2023/04/16 07:36:55;;;;;;;12.40;5.40;;;;;;;15.99;61.50;101862.28;107013;1267;25334;-54
2023/04/16 07:39:24;;;;;;;9.90;5.20;;;;;;;15.94;61.52;101858.89;106670;1269;25243;-54
2023/04/16 07:41:52;;;;;;;18.40;5.70;;;;;;;15.91;61.47;101853.20;102541;1269;1003673;-54
2023/04/16 07:44:21;;;;;;;11.40;5.10;;;;;;;15.88;61.62;101849.09;106959;1270;25349;-55
2023/04/16 07:46:49;;;;;;;11.20;5.40;;;;;;;15.84;61.78;101847.79;106938;1272;22628;-54
2023/04/16 07:49:18;;;;;;;12.60;5.30;;;;;;;15.76;62.09;101842.74;106825;1273;25362;-54
2023/04/16 07:55:09;;;;;;;10.60;5.50;;;;;;;15.65;62.14;101842.54;103706;1299;545270;-54
2023/04/16 07:57:37;;;;;;;11.10;5.20;;;;;;;15.54;62.58;101844.90;106400;1273;24403;-55
2023/04/16 08:00:07;;;;;;;13.10;5.90;;;;;;;15.51;62.89;101843.23;105899;1274;1002925;-55
2023/04/16 08:02:42;;;;;;;9.90;4.80;;;;;;;15.49;63.05;101841.70;106594;1274;25369;-55
2023/04/16 08:05:11;;;;;;;14.50;6.10;;;;;;;15.51;63.21;101840.42;106626;1275;22524;-55
2023/04/16 08:07:41;;;;;;;13.40;5.50;;;;;;;15.56;63.26;101837.50;106493;1275;212256;-55
2023/04/16 08:10:10;;;;;;;13.70;5.20;;;;;;;15.64;63.08;101837.11;106781;1272;25436;-54
2023/04/16 08:12:38;;;;;;;12.00;5.40;;;;;;;15.73;62.97;101832.88;106526;1273;22530;-55
2023/04/16 08:15:08;;;;;;;13.20;5.20;;;;;;;15.82;62.67;101828.23;106803;1272;25373;-55
2023/04/16 08:17:37;;;;;;;13.10;5.70;;;;;;;15.93;62.73;101828.66;106754;1272;25362;-55
2023/04/16 08:20:06;;;;;;;9.70;4.90;;;;;;;16.03;62.53;101831.51;106705;1275;25340;-54
2023/04/16 08:22:35;;;;;;;13.60;5.20;;;;;;;16.13;62.10;101830.89;106865;1272;22541;-55
2023/04/16 08:25:04;;;;;;;14.30;5.50;;;;;;;16.22;61.62;101836.59;106728;1273;25373;-54
2023/04/16 08:27:33;;;;;;;12.50;5.40;;;;;;;16.32;61.35;101830.73;106770;1272;24276;-54
2023/04/16 08:30:02;;;;;;;10.80;5.30;;;;;;;16.43;61.40;101826.55;106563;1272;25344;-54
2023/04/16 08:32:31;;;;;;;15.30;6.00;;;;;;;16.52;61.22;101818.78;106842;1271;22530;-54
2023/04/16 08:35:00;;;;;;;13.10;5.90;;;;;;;16.58;60.88;101823.52;106698;1272;24318;-55
2023/04/16 08:37:28;;;;;;;17.20;6.10;;;;;;;16.66;60.68;101819.06;106690;1275;22534;-54
2023/04/16 08:39:56;;;;;;;10.80;5.10;;;;;;;16.78;60.36;101816.25;106780;1272;22526;-55
2023/04/16 08:42:58;;;;;;;11.50;4.70;;;;;;;16.90;60.42;101818.14;106488;1273;22732;-54
2023/04/16 08:45:27;;;;;;;10.20;5.30;;;;;;;17.03;59.61;101822.48;106284;1281;22528;-55
2023/04/16 08:47:55;;;;;;;12.70;5.40;;;;;;;17.13;59.45;101815.48;106038;1279;22549;-54
2023/04/16 08:50:24;;;;;;;12.30;5.20;;;;;;;17.24;59.05;101818.48;106328;1279;22630;-54
2023/04/16 08:53:03;;;;;;;15.90;5.40;;;;;;;17.33;58.73;101821.85;106321;1281;22544;-54
2023/04/16 08:55:36;;;;;;;9.20;5.10;;;;;;;17.38;58.14;101822.20;105999;1281;24229;-53
2023/04/16 08:58:23;;;;;;;10.90;5.50;;;;;;;17.39;57.91;101823.58;106347;1281;23908;-53
2023/04/16 09:00:51;;;;;;;15.70;5.50;;;;;;;17.35;57.70;101823.52;106071;1281;22895;-54
2023/04/16 09:03:20;;;;;;;14.20;5.60;;;;;;;17.32;57.38;101826.60;106330;1281;25340;-54
2023/04/16 09:05:49;;;;;;;12.20;5.90;;;;;;;17.30;57.58;101828.95;106296;1278;22550;-54
2023/04/16 09:08:17;;;;;;;14.00;6.20;;;;;;;17.31;57.75;101825.59;105320;1279;1003832;-54
2023/04/16 09:10:46;;;;;;;10.00;5.20;;;;;;;17.34;57.81;101827.75;105459;1281;1003812;-54
2023/04/16 09:13:16;;;;;;;8.80;5.80;;;;;;;17.38;57.17;101829.58;106028;1281;22554;-54
2023/04/16 09:15:45;;;;;;;10.20;6.00;;;;;;;17.35;56.89;101835.09;106323;1279;22526;-54
2023/04/16 09:18:13;;;;;;;12.90;6.20;;;;;;;17.31;56.98;101831.56;106287;1279;22663;-54
2023/04/16 09:20:42;;;;;;;12.00;5.70;;;;;;;17.29;56.94;101829.88;106239;1285;25386;-53
2023/04/16 09:23:13;;;;;;;11.50;6.70;;;;;;;17.27;57.24;101832.20;106482;1272;25334;-55
2023/04/16 09:25:41;;;;;;;9.70;6.50;;;;;;;17.26;57.02;101828.55;106757;1272;23896;-54
2023/04/16 09:28:09;;;;;;;9.20;6.40;;;;;;;17.25;57.28;101821.73;106702;1276;25373;-54
2023/04/16 09:30:38;;;;;;;11.70;6.80;;;;;;;17.23;57.28;101820.77;105045;1273;1003719;-54
2023/04/16 09:33:21;;;;;;;11.10;6.20;;;;;;;17.19;57.45;101814.06;106832;1272;25478;-54
2023/04/16 09:35:53;;;;;;;11.10;5.60;;;;;;;17.11;57.57;101813.63;106488;1278;24273;-54
2023/04/16 09:38:25;;;;;;;16.60;6.20;;;;;;;17.06;58.15;101803.95;106842;1275;25344;-54
2023/04/16 09:41:09;;;;;;;12.60;6.60;;;;;;;17.07;58.39;101817.59;106539;1275;22526;-54
2023/04/16 09:43:37;;;;;;;13.00;6.00;;;;;;;17.10;58.43;101829.77;106778;1272;25450;-54
2023/04/16 09:46:06;;;;;;;11.30;5.60;;;;;;;17.10;58.28;101829.10;106838;1272;22524;-55
2023/04/16 09:48:35;;;;;;;13.30;6.50;;;;;;;17.05;58.06;101824.52;106723;1278;24276;-54
2023/04/16 09:51:05;;;;;;;13.50;6.10;;;;;;;16.97;58.24;101825.31;106831;1273;25325;-54
2023/04/16 09:53:34;;;;;;;13.00;5.80;;;;;;;16.92;58.41;101829.14;106821;1273;24225;-55
2023/04/16 09:56:05;;;;;;;17.60;6.40;;;;;;;16.84;58.84;101827.79;106710;1276;22527;-54
2023/04/16 09:58:40;;;;;;;11.50;5.40;;;;;;;16.80;59.17;101833.52;106789;1272;22681;-54
2023/04/16 10:01:12;;;;;;;12.80;6.60;;;;;;;16.80;59.44;101829.34;106490;1273;24278;-54
2023/04/16 10:03:40;;;;;;;15.30;5.90;;;;;;;16.77;59.53;101831.16;106759;1272;24225;-54
2023/04/16 10:06:21;;;;;;;10.80;5.60;;;;;;;16.81;59.82;101829.82;106836;1271;25402;-55
2023/04/16 10:08:52;;;;;;;10.20;5.40;;;;;;;16.88;59.68;101828.20;106631;1279;22521;-54
2023/04/16 10:11:21;;;;;;;;;;;;;;;16.92;59.63;101832.44;106720;1273;22504;-54
2023/04/16 10:13:49;;;;;;;10.80;4.70;;;;;;;16.97;59.57;101830.40;106704;1272;22616;-54
2023/04/16 10:16:18;;;;;;;19.30;6.10;;;;;;;17.02;59.32;101834.08;106778;1273;25529;-55
2023/04/16 10:18:47;;;;;;;10.70;5.20;;;;;;;17.06;58.86;101832.37;106855;1272;25363;-54
2023/04/16 10:21:15;;;;;;;13.00;4.90;;;;;;;17.10;58.70;101833.30;106725;1273;24211;-54
2023/04/16 10:23:45;;;;;;;12.50;5.20;;;;;;;17.13;58.73;101831.11;106647;1271;25366;-54
2023/04/16 10:26:13;;;;;;;11.40;5.60;;;;;;;17.16;58.68;101831.68;106747;1273;22546;-54
2023/04/16 10:28:44;;;;;;;9.50;4.80;;;;;;;17.18;58.40;101843.21;106789;1273;25420;-54
2023/04/16 10:31:12;;;;;;;12.80;5.40;;;;;;;17.18;58.26;101855.13;106780;1273;25344;-55
2023/04/16 10:33:41;;;;;;;13.80;5.20;;;;;;;17.17;58.13;101857.61;106673;1273;25335;-54
2023/04/16 10:36:11;;;;;;;10.90;4.10;;;;;;;17.16;58.38;101859.41;106740;1276;25554;-54
2023/04/16 10:38:44;;;;;;;11.70;4.90;;;;;;;17.17;58.36;101863.75;106829;1275;25347;-54
2023/04/16 10:41:12;;;;;;;12.50;5.10;;;;;;;17.21;58.65;101859.25;106791;1275;22527;-54
2023/04/16 10:43:45;;;;;;;11.20;5.60;;;;;;;17.26;58.58;101861.69;106727;1273;22588;-53
2023/04/16 10:46:20;;;;;;;12.60;4.90;;;;;;;17.32;58.33;101866.58;106677;1273;25353;-53
2023/04/16 10:48:51;;;;;;;11.80;5.50;;;;;;;17.38;58.23;101866.92;106829;1272;25372;-54
2023/04/16 10:51:31;;;;;;;9.80;4.40;;;;;;;17.45;57.98;101872.48;106781;1272;22551;-54
2023/04/16 10:54:03;;;;;;;14.50;5.10;;;;;;;17.47;57.54;101877.67;106578;1273;22523;-53
2023/04/16 10:56:32;;;;;;;12.30;5.60;;;;;;;17.44;57.47;101882.34;106736;1276;24267;-54
2023/04/16 10:59:07;;;;;;;8.40;4.60;;;;;;;17.40;57.75;101883.70;106328;1280;24422;-54
2023/04/16 11:01:43;;;;;;;11.60;5.10;;;;;;;17.33;57.69;101878.84;106779;1261;22521;-54
2023/04/16 11:04:24;;;;;;;9.00;5.30;;;;;;;17.22;58.01;101882.01;106657;1276;25335;-54
2023/04/16 11:07:15;;;;;;;9.40;5.20;;;;;;;17.12;58.29;101877.58;106789;1269;25353;-54
2023/04/16 11:09:53;;;;;;;9.40;5.90;;;;;;;17.04;58.49;101877.31;106796;1275;24055;-54
2023/04/16 11:12:26;;;;;;;14.50;6.10;;;;;;;17.02;58.91;101874.05;106355;1273;25347;-54
2023/04/16 11:15:00;;;;;;;8.40;5.00;;;;;;;17.05;58.91;101878.17;106713;1272;25650;-54
2023/04/16 11:17:38;;;;;;;11.10;6.20;;;;;;;17.08;58.80;101901.38;106671;1276;22528;-54
2023/04/16 11:20:24;;;;;;;9.80;6.10;;;;;;;17.14;58.67;101898.73;106696;1276;25557;-54
2023/04/16 11:22:54;;;;;;;12.90;6.40;;;;;;;17.18;58.79;101893.17;106805;1273;22531;-54
2023/04/16 11:25:32;;;;;;;11.80;6.10;;;;;;;17.21;59.01;101897.64;106802;1273;25331;-54
2023/04/16 11:28:01;;;;;;;10.70;6.40;;;;;;;17.25;58.68;101898.56;106663;1273;23892;-54